Terminal Aerodrome Forecast
Issued by NWS

Home | Current Version | Previous Version | Text Only | Print | Product List | Glossary On
Versions: 1 2 3 4 5 6 7 8 9 10 11 12 13 14 15 16 17 18 19 20 21 22 23
470
FTUS43 KLSX 282325
TAFCPS
TAF
KCPS 282325Z 2900/2924 33007KT P6SM VCTS SCT040CB BKN250
     FM290100 34003KT P6SM SCT250
      TEMPO 2909/2913 4SM BR
     FM291500 28008KT P6SM BKN040=

USA.gov is the U.S. government's official web portal to all federal, state and local government web resources and services.